createdAt,value
2022-09-05T00:00:43.872Z,48.41
2022-09-05T00:02:06.918Z,48.52
2022-09-05T00:04:45.070Z,48.57
2022-09-05T00:06:07.658Z,48.26
2022-09-05T00:07:58.441Z,48.39
2022-09-05T00:08:49.662Z,48.63
2022-09-05T00:09:55.428Z,48.64
2022-09-05T00:11:39.961Z,48.57
2022-09-05T00:12:13.885Z,48.57
2022-09-05T00:13:22.635Z,48.56
2022-09-05T00:15:18.450Z,48.55
2022-09-05T00:15:57.070Z,48.30
2022-09-05T00:17:11.663Z,48.21
2022-09-05T00:23:19.933Z,47.82
2022-09-05T00:24:21.017Z,48.00
2022-09-05T00:24:21.836Z,47.53
2022-09-05T00:24:31.664Z,47.58
2022-09-05T00:24:37.159Z,47.58
2022-09-05T00:26:28.659Z,47.78
2022-09-05T00:27:40.603Z,47.76
2022-09-05T00:29:34.768Z,47.83
2022-09-05T00:31:51.113Z,47.90
2022-09-05T00:31:56.761Z,47.39
2022-09-05T00:33:17.933Z,47.42
2022-09-05T00:34:24.140Z,47.23
2022-09-05T00:35:55.336Z,47.11
2022-09-05T00:36:59.889Z,47.01
2022-09-05T00:38:14.443Z,46.97
2022-09-05T00:39:22.909Z,46.68
2022-09-05T00:40:39.034Z,45.71
2022-09-05T00:41:42.193Z,46.71
2022-09-05T00:42:46.924Z,46.64
2022-09-05T00:43:51.189Z,46.31
2022-09-05T00:45:03.168Z,46.12
2022-09-05T00:46:09.266Z,46.00
2022-09-05T00:47:16.172Z,45.55
2022-09-05T00:48:24.564Z,45.72
2022-09-05T00:49:33.241Z,45.18
2022-09-05T00:51:08.403Z,45.56
2022-09-05T00:52:25.514Z,45.50
2022-09-05T00:53:44.386Z,45.57
2022-09-05T00:55:05.236Z,45.95
2022-09-05T00:56:17.163Z,45.91
2022-09-05T00:57:22.895Z,45.27
2022-09-05T00:58:48.369Z,45.91
2022-09-05T01:00:06.874Z,45.46
2022-09-05T01:01:35.264Z,44.97
2022-09-05T01:03:14.201Z,45.19
2022-09-05T01:04:28.764Z,45.07
2022-09-05T01:05:46.722Z,44.93
2022-09-05T01:07:08.268Z,44.79
2022-09-05T01:08:33.913Z,44.76
2022-09-05T01:09:51.895Z,44.92
2022-09-05T01:11:26.695Z,44.86
2022-09-05T01:12:53.091Z,44.78
2022-09-05T01:14:03.971Z,44.96
2022-09-05T01:15:36.053Z,44.54
2022-09-05T01:17:05.812Z,44.55
2022-09-05T01:19:30.721Z,44.85
2022-09-05T01:20:54.773Z,44.89
2022-09-05T01:22:19.899Z,45.07
2022-09-05T01:23:47.080Z,45.06
2022-09-05T01:25:12.381Z,45.32
2022-09-05T01:26:18.226Z,45.05
2022-09-05T01:29:14.177Z,44.95
2022-09-05T01:29:18.116Z,45.14
2022-09-05T01:30:08.482Z,45.13
2022-09-05T01:31:29.728Z,45.17
2022-09-05T01:33:05.741Z,45.35
2022-09-05T01:34:33.454Z,45.50
2022-09-05T01:36:03.869Z,45.59
2022-09-05T01:37:02.590Z,45.74
2022-09-05T01:38:29.362Z,45.64
2022-09-05T01:40:10.547Z,45.75
2022-09-05T01:41:27.288Z,45.23
2022-09-05T01:42:38.986Z,45.39
2022-09-05T01:44:02.979Z,45.71
2022-09-05T01:45:11.533Z,45.63
2022-09-05T01:46:51.291Z,45.79
2022-09-05T01:47:59.813Z,45.92
2022-09-05T01:49:11.271Z,45.94
2022-09-05T01:50:45.287Z,45.74
2022-09-05T01:52:09.271Z,45.75
2022-09-05T01:53:46.012Z,45.91
2022-09-05T01:55:11.425Z,46.15
2022-09-05T01:56:34.462Z,45.86
2022-09-05T01:57:49.572Z,45.68
2022-09-05T01:58:58.408Z,45.94
2022-09-05T02:00:07.065Z,46.15
2022-09-05T02:01:25.357Z,46.11
2022-09-05T02:02:50.618Z,46.64
2022-09-05T02:04:00.083Z,46.17
2022-09-05T02:05:07.594Z,46.41
2022-09-05T02:06:49.099Z,46.21
2022-09-05T02:07:54.734Z,46.37
2022-09-05T02:09:20.536Z,46.13
2022-09-05T02:10:43.049Z,46.66
2022-09-05T02:11:55.452Z,46.76
2022-09-05T02:13:05.711Z,46.18
2022-09-05T02:15:24.747Z,46.77
2022-09-05T02:16:40.269Z,46.53
2022-09-05T02:17:50.367Z,46.65
2022-09-05T02:18:56.349Z,46.62
2022-09-05T02:20:23.507Z,46.86
2022-09-05T02:21:56.384Z,46.94
2022-09-05T02:23:24.762Z,46.94
2022-09-05T02:24:20.553Z,46.74
2022-09-05T02:26:01.744Z,46.83
2022-09-05T02:26:33.850Z,46.68
2022-09-05T02:28:04.027Z,46.80
2022-09-05T02:28:46.988Z,46.85
2022-09-05T02:30:07.501Z,46.79
2022-09-05T02:31:23.798Z,46.92
2022-09-05T02:32:40.503Z,46.74
2022-09-05T02:33:48.334Z,46.74
2022-09-05T02:34:59.699Z,46.81
2022-09-05T02:36:11.457Z,46.97
2022-09-05T02:40:22.023Z,46.81
2022-09-05T02:45:07.281Z,46.82
2022-09-05T02:45:08.247Z,47.01
2022-09-05T02:45:08.711Z,47.11
2022-09-05T02:45:09.613Z,46.78
2022-09-05T02:45:20.264Z,47.53
2022-09-05T02:45:52.178Z,47.46
2022-09-05T02:47:19.595Z,48.07
2022-09-05T02:48:34.202Z,48.37
2022-09-05T02:53:13.763Z,48.60
2022-09-05T02:57:25.826Z,48.66
2022-09-05T02:57:35.593Z,49.08
2022-09-05T02:57:36.693Z,49.32
2022-09-05T02:57:38.161Z,48.92
2022-09-05T02:57:41.150Z,48.99
2022-09-05T02:58:05.703Z,49.72
2022-09-05T02:59:09.790Z,50.12
2022-09-05T03:00:08.957Z,50.20
2022-09-05T03:01:20.546Z,50.40
2022-09-05T03:02:32.393Z,50.67
2022-09-05T03:03:51.072Z,50.52
2022-09-05T03:05:02.933Z,50.55
2022-09-05T03:06:34.188Z,50.33
2022-09-05T03:07:50.900Z,50.32
2022-09-05T03:09:17.001Z,50.17
2022-09-05T03:10:54.613Z,50.07
2022-09-05T03:12:28.692Z,49.56
2022-09-05T03:13:54.373Z,50.04
2022-09-05T03:15:24.636Z,49.91
2022-09-05T03:16:57.255Z,49.82
2022-09-05T03:18:22.823Z,50.01
2022-09-05T03:19:48.211Z,49.92
2022-09-05T03:21:09.728Z,49.92
2022-09-05T03:22:38.609Z,50.23
2022-09-05T03:24:02.199Z,49.90
2022-09-05T03:25:30.698Z,49.91
2022-09-05T03:27:02.498Z,49.67
2022-09-05T03:28:20.031Z,50.01
2022-09-05T03:29:45.232Z,50.25
2022-09-05T03:31:06.454Z,49.96
2022-09-05T03:32:47.109Z,49.74
2022-09-05T03:33:55.454Z,49.77
2022-09-05T03:35:10.176Z,49.36
2022-09-05T03:36:31.392Z,49.35
2022-09-05T03:38:05.868Z,49.36
2022-09-05T03:39:33.570Z,49.31
2022-09-05T03:40:42.402Z,49.15
2022-09-05T03:42:05.951Z,49.33
2022-09-05T03:43:21.951Z,49.16
2022-09-05T03:45:01.410Z,49.03
2022-09-05T03:46:20.018Z,49.07
2022-09-05T03:47:28.807Z,49.18
2022-09-05T03:48:49.947Z,49.25
2022-09-05T03:53:24.183Z,49.12
2022-09-05T03:57:08.931Z,49.31
2022-09-05T03:57:12.858Z,49.47
2022-09-05T03:57:17.190Z,49.65
2022-09-05T03:57:19.058Z,49.75
2022-09-05T03:57:42.279Z,49.43
2022-09-05T03:58:59.650Z,49.45
2022-09-05T04:00:03.273Z,49.52
2022-09-05T04:02:56.537Z,49.37
2022-09-05T04:06:15.728Z,49.83
2022-09-05T04:08:06.806Z,49.58
2022-09-05T04:08:10.455Z,49.40
2022-09-05T04:08:17.040Z,49.53
2022-09-05T04:08:24.732Z,49.31
2022-09-05T04:08:47.007Z,49.38
2022-09-05T04:09:55.780Z,49.05
2022-09-05T04:11:07.740Z,48.93
2022-09-05T04:12:40.363Z,49.12
2022-09-05T04:13:49.051Z,49.16
2022-09-05T04:14:58.338Z,49.49
2022-09-05T04:16:19.451Z,49.34
2022-09-05T04:17:44.743Z,49.73
2022-09-05T04:18:50.382Z,49.54
2022-09-05T04:20:04.869Z,49.70
2022-09-05T04:21:13.532Z,49.95
2022-09-05T04:22:42.886Z,49.74
2022-09-05T04:23:49.694Z,49.50
2022-09-05T04:25:11.669Z,49.64
2022-09-05T04:26:52.032Z,49.64
2022-09-05T04:28:16.108Z,49.82
2022-09-05T04:29:42.267Z,50.08
2022-09-05T04:30:54.534Z,50.88
2022-09-05T04:32:18.064Z,50.70
2022-09-05T04:33:36.409Z,51.17
2022-09-05T04:34:42.251Z,51.38
2022-09-05T04:35:57.004Z,51.39
2022-09-05T04:37:03.263Z,51.33
2022-09-05T04:38:14.910Z,51.00
2022-09-05T04:39:21.130Z,50.89
2022-09-05T04:40:39.266Z,50.77
2022-09-05T04:41:51.184Z,50.91
2022-09-05T04:42:54.316Z,51.22
2022-09-05T04:43:59.964Z,51.43
2022-09-05T04:45:10.405Z,51.61
2022-09-05T04:46:28.830Z,51.79
2022-09-05T04:47:44.303Z,51.84
2022-09-05T04:48:53.208Z,52.15
2022-09-05T04:50:12.675Z,51.86
2022-09-05T04:51:30.562Z,51.63
2022-09-05T04:52:55.297Z,51.50
2022-09-05T04:54:24.161Z,51.46
2022-09-05T04:55:46.857Z,51.44
2022-09-05T04:56:53.501Z,51.34
2022-09-05T04:58:02.166Z,51.78
2022-09-05T05:01:46.108Z,52.20
2022-09-05T05:06:04.359Z,52.38
2022-09-05T05:06:12.053Z,52.98
2022-09-05T05:06:13.899Z,52.91
2022-09-05T05:06:14.661Z,53.12
2022-09-05T05:06:16.109Z,53.09
2022-09-05T05:06:44.062Z,53.21
2022-09-05T05:07:49.791Z,53.74
2022-09-05T05:09:07.792Z,53.84
2022-09-05T05:11:34.863Z,53.86
2022-09-05T05:16:18.613Z,53.63
2022-09-05T05:17:54.143Z,53.67
2022-09-05T05:18:01.745Z,53.77
2022-09-05T05:18:06.249Z,53.61
2022-09-05T05:18:08.955Z,53.52
2022-09-05T05:18:12.790Z,53.71
2022-09-05T05:19:03.026Z,53.88
2022-09-05T05:20:41.978Z,54.01
2022-09-05T05:21:29.554Z,54.31
2022-09-05T05:22:31.646Z,54.81
2022-09-05T05:23:37.723Z,54.89
2022-09-05T05:24:44.773Z,54.96
2022-09-05T05:25:50.132Z,55.37
2022-09-05T05:26:59.056Z,55.17
2022-09-05T05:28:12.329Z,55.17
2022-09-05T05:29:24.074Z,55.12
2022-09-05T05:30:29.729Z,55.64
2022-09-05T05:31:35.448Z,56.21
2022-09-05T05:32:45.548Z,56.43
2022-09-05T05:33:49.117Z,57.76
2022-09-05T05:35:00.523Z,60.29
2022-09-05T05:36:06.941Z,63.38
2022-09-05T05:37:22.329Z,61.48
2022-09-05T05:38:45.077Z,60.78
2022-09-05T05:40:08.938Z,62.89
2022-09-05T05:41:18.783Z,63.14
2022-09-05T05:42:24.019Z,63.22
2022-09-05T05:43:29.311Z,63.84
2022-09-05T05:44:36.468Z,62.13
2022-09-05T05:45:38.822Z,64.06
2022-09-05T05:46:47.494Z,64.31
2022-09-05T05:47:53.143Z,63.60
2022-09-05T05:48:58.915Z,63.28
2022-09-05T05:50:11.469Z,63.49
2022-09-05T05:51:36.470Z,62.59
2022-09-05T05:52:42.013Z,62.85
2022-09-05T05:53:53.208Z,62.80
2022-09-05T05:55:28.445Z,62.62
2022-09-05T05:56:09.725Z,62.58
2022-09-05T05:57:27.433Z,63.94
2022-09-05T05:58:59.219Z,63.89
2022-09-05T06:00:27.916Z,63.48
2022-09-05T06:01:49.290Z,63.88
2022-09-05T06:03:26.954Z,64.50
2022-09-05T06:04:50.425Z,64.13
2022-09-05T06:06:21.723Z,63.32
2022-09-05T06:08:22.541Z,62.61
2022-09-05T06:14:49.298Z,62.75
2022-09-05T06:14:50.907Z,62.04
2022-09-05T06:14:57.361Z,62.33
2022-09-05T06:15:04.671Z,62.58
2022-09-05T06:15:23.391Z,62.91
2022-09-05T06:16:49.366Z,62.90
2022-09-05T06:18:22.517Z,63.64
2022-09-05T06:19:48.422Z,63.87
2022-09-05T06:22:10.457Z,64.20
2022-09-05T06:22:37.076Z,64.62
2022-09-05T06:24:11.663Z,65.47
2022-09-05T06:25:43.449Z,66.67
2022-09-05T06:26:58.824Z,66.76
2022-09-05T06:28:18.360Z,66.97
2022-09-05T06:29:46.944Z,66.75
2022-09-05T06:31:22.565Z,67.72
2022-09-05T06:32:27.225Z,67.58
2022-09-05T06:33:35.885Z,68.23
2022-09-05T06:35:01.087Z,69.10
2022-09-05T06:36:33.052Z,69.31
2022-09-05T06:37:54.591Z,69.28
2022-09-05T06:39:06.359Z,69.25
2022-09-05T06:40:31.904Z,69.66
2022-09-05T06:41:53.271Z,70.29
2022-09-05T06:44:58.382Z,69.67
2022-09-05T06:46:52.937Z,69.22
2022-09-05T06:47:38.685Z,69.45
2022-09-05T06:49:31.114Z,68.91
2022-09-05T06:50:27.090Z,69.31
2022-09-05T06:51:36.564Z,68.95
2022-09-05T06:52:49.844Z,69.02
2022-09-05T06:54:04.792Z,68.85
2022-09-05T06:55:30.119Z,68.33
2022-09-05T06:56:36.020Z,67.63
2022-09-05T06:58:05.406Z,66.35
2022-09-05T06:59:11.147Z,65.91
2022-09-05T07:00:25.220Z,66.06
2022-09-05T07:01:38.423Z,66.26
2022-09-05T07:02:58.858Z,65.80
2022-09-05T07:05:23.227Z,66.05
2022-09-05T07:05:40.035Z,66.78
2022-09-05T07:07:01.813Z,68.08
2022-09-05T07:07:53.966Z,69.08
2022-09-05T07:09:19.811Z,69.04
2022-09-05T07:10:39.183Z,69.44
2022-09-05T07:11:53.900Z,69.76
2022-09-05T07:14:22.270Z,72.71
2022-09-05T07:15:37.090Z,75.99
2022-09-05T07:17:07.329Z,76.24
2022-09-05T07:18:26.065Z,76.12
2022-09-05T07:19:37.591Z,77.10
2022-09-05T07:21:06.778Z,78.81
2022-09-05T07:22:46.040Z,78.56
2022-09-05T07:24:02.285Z,78.85
2022-09-05T07:24:53.729Z,76.49
2022-09-05T07:25:37.233Z,75.93
2022-09-05T07:26:53.751Z,76.15
2022-09-05T07:28:26.761Z,76.50
2022-09-05T07:29:04.941Z,77.07
2022-09-05T07:30:09.861Z,77.05
2022-09-05T07:31:27.457Z,77.43
2022-09-05T07:32:30.259Z,76.31
2022-09-05T07:33:35.066Z,77.09
2022-09-05T07:34:37.740Z,77.01
2022-09-05T07:35:41.606Z,75.99
2022-09-05T07:36:59.204Z,75.34
2022-09-05T07:38:05.749Z,75.56
2022-09-05T07:39:28.384Z,76.01
2022-09-05T07:40:24.935Z,76.50
2022-09-05T07:41:28.318Z,76.45
2022-09-05T07:43:46.810Z,75.40
2022-09-05T07:44:52.541Z,74.91
2022-09-05T07:46:07.090Z,74.78
2022-09-05T07:47:29.022Z,74.75
2022-09-05T07:48:38.818Z,74.13
2022-09-05T07:50:19.693Z,73.96
2022-09-05T07:56:49.330Z,74.63
2022-09-05T07:56:50.090Z,75.62
2022-09-05T07:56:52.643Z,77.23
2022-09-05T07:56:58.647Z,77.13
2022-09-05T07:57:04.796Z,76.37
2022-09-05T07:58:04.991Z,77.21
2022-09-05T07:59:10.710Z,77.14
2022-09-05T08:00:26.670Z,76.96
2022-09-05T08:01:24.439Z,76.60
2022-09-05T08:02:26.651Z,77.65
2022-09-05T08:03:28.740Z,87.38
2022-09-05T08:04:34.615Z,89.99
2022-09-05T08:05:40.413Z,91.85
2022-09-05T08:07:45.965Z,93.48
2022-09-05T08:07:53.027Z,94.11
2022-09-05T08:10:00.939Z,95.78
2022-09-05T08:10:15.858Z,97.35
2022-09-05T08:11:24.015Z,98.43
2022-09-05T08:12:29.744Z,99.55
2022-09-05T08:13:46.638Z,100.00
2022-09-05T08:15:10.273Z,100.00
2022-09-05T08:16:20.864Z,100.00
2022-09-05T08:17:29.920Z,100.00
2022-09-05T08:18:43.602Z,100.00
2022-09-05T08:19:52.317Z,100.00
2022-09-05T08:21:08.229Z,100.00
2022-09-05T08:22:15.064Z,100.00
2022-09-05T08:23:27.573Z,100.00
2022-09-05T08:24:35.957Z,100.00
2022-09-05T08:25:56.714Z,100.00
2022-09-05T08:26:52.118Z,100.00
2022-09-05T08:28:07.008Z,100.00
2022-09-05T08:29:15.784Z,100.00
2022-09-05T08:30:26.475Z,100.00
2022-09-05T08:31:29.435Z,100.00
2022-09-05T08:32:47.408Z,100.00
2022-09-05T08:33:57.943Z,100.00
2022-09-05T08:35:05.762Z,100.00
2022-09-05T08:36:45.074Z,100.00
2022-09-05T08:37:48.488Z,100.00
2022-09-05T08:38:51.620Z,100.00
2022-09-05T08:40:10.827Z,100.00
2022-09-05T08:41:13.047Z,100.00
2022-09-05T08:42:34.413Z,100.00
2022-09-05T08:46:48.710Z,98.45
2022-09-05T08:49:36.935Z,99.61
2022-09-05T08:50:41.595Z,99.72
2022-09-05T08:51:55.561Z,100.00
2022-09-05T08:53:46.482Z,100.00
2022-09-05T08:55:07.487Z,98.58
2022-09-05T08:56:21.782Z,97.50
2022-09-05T08:57:44.688Z,96.69
2022-09-05T08:59:32.203Z,96.84
2022-09-05T09:00:24.191Z,93.62
2022-09-05T09:02:14.487Z,92.49
2022-09-05T09:03:07.470Z,92.52
2022-09-05T09:04:16.668Z,93.89
2022-09-05T09:06:08.494Z,94.55
2022-09-05T09:07:27.820Z,92.22
2022-09-05T09:08:35.754Z,86.73
2022-09-05T09:09:47.170Z,85.95
2022-09-05T09:10:55.691Z,84.63
2022-09-05T09:12:16.509Z,86.77
2022-09-05T09:13:22.403Z,86.29
2022-09-05T09:14:38.328Z,88.19
2022-09-05T09:16:14.647Z,86.77
2022-09-05T09:17:23.203Z,87.73
2022-09-05T09:18:32.909Z,84.86
2022-09-05T09:19:42.099Z,85.55
2022-09-05T09:20:53.678Z,85.51
2022-09-05T09:22:06.056Z,87.10
2022-09-05T09:23:32.602Z,88.20
2022-09-05T09:25:08.254Z,87.27
2022-09-05T09:26:13.571Z,89.32
2022-09-05T09:27:41.746Z,86.86
2022-09-05T09:28:47.394Z,82.01
2022-09-05T09:29:46.017Z,78.53
2022-09-05T09:30:57.709Z,78.42
2022-09-05T09:32:12.525Z,80.37
2022-09-05T09:33:18.570Z,77.35
2022-09-05T09:34:30.979Z,79.41
2022-09-05T09:35:39.967Z,77.57
2022-09-05T09:36:46.116Z,73.98
2022-09-05T09:38:07.042Z,72.37
2022-09-05T09:39:38.100Z,69.69
2022-09-05T09:40:33.581Z,71.84
2022-09-05T09:41:39.215Z,72.32
2022-09-05T09:42:48.090Z,73.32
2022-09-05T09:44:17.279Z,74.33
2022-09-05T09:45:45.894Z,71.11
2022-09-05T09:46:51.254Z,66.32
2022-09-05T09:48:02.933Z,63.35
2022-09-05T09:49:23.272Z,64.26
2022-09-05T09:50:58.192Z,66.98
2022-09-05T09:52:20.646Z,66.51
2022-09-05T09:53:41.077Z,67.12
2022-09-05T09:55:05.993Z,65.99
2022-09-05T09:56:26.238Z,66.52
2022-09-05T09:58:06.536Z,63.95
2022-09-05T09:59:18.521Z,65.25
2022-09-05T10:00:26.821Z,64.16
2022-09-05T10:01:43.581Z,61.71
2022-09-05T10:06:43.741Z,64.06
2022-09-05T10:10:34.568Z,64.61
2022-09-05T10:10:44.109Z,63.36
2022-09-05T10:10:47.867Z,64.85
2022-09-05T10:10:51.624Z,64.33
2022-09-05T10:10:53.744Z,62.69
2022-09-05T10:11:54.715Z,60.14
2022-09-05T10:13:10.455Z,61.98
2022-09-05T10:14:49.145Z,61.89
2022-09-05T10:16:04.105Z,64.29
2022-09-05T10:17:12.527Z,62.47
2022-09-05T10:18:27.002Z,63.20
2022-09-05T10:21:15.583Z,63.35
2022-09-05T10:22:40.084Z,61.92
2022-09-05T10:23:44.548Z,61.58
2022-09-05T10:25:18.481Z,59.73
2022-09-05T10:26:37.564Z,58.22
2022-09-05T10:29:36.867Z,59.36
2022-09-05T10:30:41.852Z,61.21
2022-09-05T10:35:06.038Z,59.49
2022-09-05T10:35:17.388Z,59.56
2022-09-05T10:35:20.809Z,60.56
2022-09-05T10:36:20.416Z,60.82
2022-09-05T10:37:43.581Z,61.69
2022-09-05T10:38:55.656Z,60.37
2022-09-05T10:40:01.416Z,59.06
2022-09-05T10:41:20.812Z,58.46
2022-09-05T10:42:43.402Z,57.01
2022-09-05T10:44:00.261Z,59.17
2022-09-05T10:45:06.005Z,58.19
2022-09-05T10:47:40.260Z,56.50
2022-09-05T10:48:52.911Z,56.90
2022-09-05T10:50:14.621Z,55.92
2022-09-05T10:51:27.893Z,54.66
2022-09-05T10:52:28.367Z,55.63
2022-09-05T10:53:39.539Z,52.33
2022-09-05T10:54:50.536Z,51.75
2022-09-05T10:56:10.742Z,53.96
2022-09-05T10:57:33.491Z,54.49
2022-09-05T11:02:16.167Z,48.73
2022-09-05T11:02:22.309Z,49.84
2022-09-05T11:02:26.176Z,48.28
2022-09-05T11:02:47.215Z,49.38
2022-09-05T11:03:53.925Z,47.10
2022-09-05T11:05:23.605Z,46.46
2022-09-05T11:06:43.221Z,46.36
2022-09-05T11:08:09.720Z,47.87
2022-09-05T11:09:25.737Z,44.96
2022-09-05T11:10:48.621Z,44.80
2022-09-05T11:11:57.148Z,44.40
2022-09-05T11:13:19.107Z,43.20
2022-09-05T11:14:33.982Z,45.32
2022-09-05T11:16:03.724Z,45.45
2022-09-05T11:16:56.347Z,44.46
2022-09-05T11:18:05.009Z,43.73
2022-09-05T11:19:19.691Z,42.99
2022-09-05T11:20:35.144Z,43.46
2022-09-05T11:22:05.289Z,42.57
2022-09-05T11:23:04.703Z,43.73
2022-09-05T11:24:14.369Z,42.15
2022-09-05T11:25:24.509Z,40.32
2022-09-05T11:26:33.495Z,40.93
2022-09-05T11:27:51.711Z,41.50
2022-09-05T11:29:00.368Z,41.80
2022-09-05T11:30:08.772Z,41.43
2022-09-05T11:31:17.446Z,42.75
2022-09-05T11:39:35.082Z,42.08
2022-09-05T11:39:48.696Z,41.57
2022-09-05T11:39:59.807Z,40.94
2022-09-05T11:40:00.588Z,41.36
2022-09-05T11:40:06.571Z,40.89
2022-09-05T11:40:09.523Z,40.64
2022-09-05T11:40:56.926Z,40.54
2022-09-05T11:41:44.093Z,41.06
2022-09-05T11:43:05.566Z,40.56
2022-09-05T11:44:43.628Z,41.32
2022-09-05T11:46:01.722Z,40.45
2022-09-05T11:47:29.741Z,40.42
2022-09-05T11:48:36.217Z,40.11
2022-09-05T11:49:52.878Z,40.80
2022-09-05T11:51:33.664Z,39.23
2022-09-05T11:52:36.564Z,38.80
2022-09-05T11:53:59.871Z,38.89
2022-09-05T11:55:22.263Z,37.77
2022-09-05T11:56:41.873Z,37.41
2022-09-05T11:57:53.486Z,37.54
2022-09-05T11:59:10.172Z,38.51
2022-09-05T12:00:31.139Z,37.54
2022-09-05T12:02:16.904Z,35.90
2022-09-05T12:03:57.974Z,36.00
2022-09-05T12:04:40.119Z,36.64
2022-09-05T12:06:03.961Z,35.69
2022-09-05T12:08:39.494Z,34.81
2022-09-05T12:10:09.183Z,34.76
2022-09-05T12:11:43.485Z,35.88
2022-09-05T12:12:54.897Z,35.76
2022-09-05T12:14:25.782Z,35.33
2022-09-05T12:15:32.164Z,34.32
2022-09-05T12:16:56.754Z,35.18
2022-09-05T12:18:34.030Z,33.79
2022-09-05T12:19:43.632Z,32.85
2022-09-05T12:21:14.379Z,34.33
2022-09-05T12:22:18.650Z,34.15
2022-09-05T12:23:53.629Z,34.37
2022-09-05T12:25:25.185Z,34.96
2022-09-05T12:27:39.892Z,34.67
2022-09-05T12:27:42.719Z,34.24
2022-09-05T12:29:27.935Z,34.80
2022-09-05T12:30:00.425Z,33.72
2022-09-05T12:32:36.716Z,33.34
2022-09-05T12:34:39.804Z,33.33
2022-09-05T12:36:03.592Z,33.71
2022-09-05T12:36:10.395Z,33.42
2022-09-05T12:40:38.213Z,33.55
2022-09-05T12:40:44.685Z,33.08
2022-09-05T12:40:54.190Z,33.18
2022-09-05T12:41:36.334Z,31.88
2022-09-05T12:42:07.482Z,32.62
2022-09-05T12:42:22.257Z,32.66
2022-09-05T12:44:38.930Z,33.64
2022-09-05T12:44:45.962Z,34.36
2022-09-05T12:47:16.569Z,35.13
2022-09-05T12:48:26.343Z,35.09
2022-09-05T12:49:37.346Z,35.36
2022-09-05T12:50:43.186Z,34.54
2022-09-05T12:51:48.908Z,34.37
2022-09-05T12:52:54.543Z,34.95
2022-09-05T12:54:04.868Z,34.33
2022-09-05T12:55:12.509Z,34.25
2022-09-05T12:59:27.056Z,34.51
2022-09-05T13:02:57.665Z,33.51
2022-09-05T13:03:00.953Z,33.29
2022-09-05T13:03:01.265Z,33.64
2022-09-05T13:03:06.943Z,32.64
2022-09-05T13:03:09.580Z,31.43
2022-09-05T13:03:28.193Z,31.45
2022-09-05T13:04:29.697Z,31.23
2022-09-05T13:05:46.728Z,31.02
2022-09-05T13:06:58.519Z,31.22
2022-09-05T13:08:01.835Z,31.85
2022-09-05T13:10:22.820Z,32.02
2022-09-05T13:14:46.485Z,32.80
2022-09-05T13:14:49.038Z,32.50
2022-09-05T13:14:52.852Z,32.81
2022-09-05T13:14:58.212Z,32.40
2022-09-05T13:15:23.400Z,32.82
2022-09-05T13:16:25.612Z,32.31
2022-09-05T13:17:44.213Z,32.49
2022-09-05T13:18:48.065Z,32.69
2022-09-05T13:19:51.829Z,32.28
2022-09-05T13:21:03.184Z,31.49
2022-09-05T13:22:07.085Z,30.94
2022-09-05T13:23:15.486Z,30.62
2022-09-05T13:24:27.409Z,30.99
2022-09-05T13:25:31.973Z,30.72
2022-09-05T13:26:55.989Z,30.83
2022-09-05T13:28:05.180Z,31.34
2022-09-05T13:29:20.483Z,31.18
2022-09-05T13:35:31.674Z,31.97
2022-09-05T13:37:58.986Z,32.83
2022-09-05T13:37:59.332Z,31.92
2022-09-05T13:38:04.487Z,33.31
2022-09-05T13:38:04.488Z,32.83
2022-09-05T13:38:12.827Z,33.47
2022-09-05T13:38:17.980Z,33.03
2022-09-05T13:38:56.853Z,32.97
2022-09-05T13:40:09.115Z,33.53
2022-09-05T13:41:27.862Z,34.00
2022-09-05T13:42:25.806Z,34.07
2022-09-05T13:43:35.762Z,34.62
2022-09-05T13:44:41.420Z,35.05
2022-09-05T13:45:53.996Z,35.34
2022-09-05T13:47:29.801Z,35.21
2022-09-05T13:48:25.384Z,35.87
2022-09-05T13:49:34.544Z,35.26
2022-09-05T13:50:40.792Z,35.10
2022-09-05T13:51:46.765Z,34.74
2022-09-05T13:52:55.625Z,34.82
2022-09-05T13:54:13.526Z,35.02
2022-09-05T13:55:22.196Z,34.44
2022-09-05T13:56:30.606Z,34.92
2022-09-05T13:57:42.089Z,34.65
2022-09-05T13:58:52.427Z,35.03
2022-09-05T14:00:07.692Z,35.19
2022-09-05T14:01:33.653Z,35.23
2022-09-05T14:03:39.261Z,35.85
2022-09-05T14:05:07.335Z,35.47
2022-09-05T14:05:57.156Z,35.20
2022-09-05T14:08:43.156Z,34.53
2022-09-05T14:10:18.854Z,33.98
2022-09-05T14:11:45.108Z,34.33
2022-09-05T14:12:56.288Z,33.36
2022-09-05T14:14:11.023Z,33.71
2022-09-05T14:15:25.631Z,34.20
2022-09-05T14:16:34.765Z,34.76
2022-09-05T14:18:11.589Z,34.55
2022-09-05T14:19:16.964Z,34.66
2022-09-05T14:20:24.272Z,34.72
2022-09-05T14:21:30.896Z,34.00
2022-09-05T14:22:48.612Z,34.88
2022-09-05T14:24:03.328Z,34.67
2022-09-05T14:25:08.148Z,35.35
2022-09-05T14:26:15.051Z,35.01
2022-09-05T14:27:31.740Z,35.68
2022-09-05T14:28:27.642Z,35.32
2022-09-05T14:29:53.525Z,34.84
2022-09-05T14:33:11.035Z,34.76
2022-09-05T14:37:39.203Z,35.37
2022-09-05T14:37:41.620Z,34.36
2022-09-05T14:37:50.480Z,35.84
2022-09-05T14:37:59.418Z,35.02
2022-09-05T14:38:00.594Z,35.01
2022-09-05T14:39:00.679Z,35.14
2022-09-05T14:40:39.509Z,35.10
2022-09-05T14:42:09.632Z,33.83
2022-09-05T14:43:24.430Z,33.52
2022-09-05T14:44:43.869Z,32.58
2022-09-05T14:46:03.484Z,32.48
2022-09-05T14:47:42.946Z,32.26
2022-09-05T14:49:00.347Z,32.48
2022-09-05T14:50:17.474Z,33.64
2022-09-05T14:51:36.152Z,34.44
2022-09-05T14:52:44.057Z,34.38
2022-09-05T14:55:21.039Z,33.98
2022-09-05T14:57:18.946Z,33.61
2022-09-05T15:02:45.932Z,32.36
2022-09-05T15:02:53.581Z,32.97
2022-09-05T15:02:53.944Z,32.87
2022-09-05T15:02:56.843Z,33.36
2022-09-05T15:04:44.834Z,34.33
2022-09-05T15:05:47.855Z,33.93
2022-09-05T15:07:02.925Z,34.34
2022-09-05T15:09:28.629Z,34.54
2022-09-05T15:12:05.626Z,34.84
2022-09-05T15:12:14.877Z,34.66
2022-09-05T15:12:20.170Z,34.34
2022-09-05T15:12:45.500Z,34.12
2022-09-05T15:13:45.866Z,34.35
2022-09-05T15:15:09.593Z,34.51
2022-09-05T15:16:14.860Z,35.02
2022-09-05T15:17:23.597Z,34.90
2022-09-05T15:18:29.254Z,35.25
2022-09-05T15:20:05.443Z,35.86
2022-09-05T15:20:57.888Z,36.12
2022-09-05T15:22:03.545Z,35.25
2022-09-05T15:23:16.079Z,36.59
2022-09-05T15:24:24.841Z,36.42
2022-09-05T15:25:29.371Z,36.14
2022-09-05T15:26:32.589Z,36.88
2022-09-05T15:27:34.433Z,36.30
2022-09-05T15:28:40.993Z,36.04
2022-09-05T15:29:46.625Z,36.69
2022-09-05T15:31:01.564Z,36.39
2022-09-05T15:32:20.698Z,37.39
2022-09-05T15:33:26.639Z,37.36
2022-09-05T15:34:33.359Z,37.64
2022-09-05T15:35:38.378Z,37.62
2022-09-05T15:36:40.471Z,37.76
2022-09-05T15:37:43.161Z,37.27
2022-09-05T15:38:56.234Z,37.05
2022-09-05T15:40:23.669Z,37.21
2022-09-05T15:41:22.857Z,36.90
2022-09-05T15:42:29.166Z,36.62
2022-09-05T15:43:32.586Z,36.94
2022-09-05T15:44:53.248Z,37.22
2022-09-05T15:45:39.011Z,37.43
2022-09-05T15:46:53.264Z,37.25
2022-09-05T15:48:17.071Z,38.64
2022-09-05T15:49:41.171Z,37.49
2022-09-05T15:50:49.080Z,37.18
2022-09-05T15:51:57.718Z,38.37
2022-09-05T15:52:59.812Z,37.91
2022-09-05T15:54:02.064Z,38.13
2022-09-05T15:55:14.343Z,38.17
2022-09-05T15:56:20.603Z,38.63
2022-09-05T15:57:28.568Z,38.49
2022-09-05T15:58:54.050Z,39.34
2022-09-05T15:59:40.467Z,38.53
2022-09-05T16:00:51.769Z,39.02
2022-09-05T16:02:00.394Z,38.68
2022-09-05T16:06:12.671Z,39.32
2022-09-05T16:07:39.234Z,39.55
2022-09-05T16:10:29.443Z,39.21
2022-09-05T16:10:39.701Z,38.89
2022-09-05T16:10:41.555Z,39.54
2022-09-05T16:10:43.465Z,39.47
2022-09-05T16:10:50.408Z,39.01
2022-09-05T16:12:09.179Z,38.79
2022-09-05T16:12:46.056Z,39.44
2022-09-05T16:13:53.345Z,39.38
2022-09-05T16:15:37.983Z,40.02
2022-09-05T16:21:38.354Z,40.20
2022-09-05T16:23:14.143Z,40.41
2022-09-05T16:23:23.409Z,41.73
2022-09-05T16:23:29.337Z,40.81
2022-09-05T16:23:31.194Z,41.24
2022-09-05T16:23:32.674Z,40.45
2022-09-05T16:23:33.472Z,41.17
2022-09-05T16:24:24.848Z,41.20
2022-09-05T16:25:29.294Z,41.47
2022-09-05T16:26:36.253Z,42.14
2022-09-05T16:27:51.003Z,41.69
2022-09-05T16:29:02.662Z,41.80
2022-09-05T16:30:06.699Z,41.70
2022-09-05T16:31:24.262Z,42.00
2022-09-05T16:32:31.517Z,42.25
2022-09-05T16:33:34.630Z,42.77
2022-09-05T16:34:40.383Z,42.62
2022-09-05T16:37:08.136Z,43.14
2022-09-05T16:39:49.077Z,43.04
2022-09-05T16:40:57.964Z,43.07
2022-09-05T16:42:07.831Z,43.24
2022-09-05T16:43:13.596Z,42.95